Time;durP1;ratioP1;P1;durP2;ratioP2;P2;SDS_P1;SDS_P2;PMS_P1;PMS_P2;Temp;Humidity;BMP_temperature;BMP_pressure;BME280_temperature;BME280_humidity;BME280_pressure;Samples;Min_cycle;Max_cycle;Signal;HPM_P1;HPM_P2
2023/08/25 00:00:44;;;;;;;20.85;18.85;;;19.30;99.90;;;;;;6239350;23;20043;-80
2023/08/25 00:03:10;;;;;;;24.48;22.30;;;19.20;99.90;;;;;;6239312;23;20359;-80
2023/08/25 00:05:39;;;;;;;22.25;19.73;;;19.20;99.90;;;;;;6238607;23;20338;-80
2023/08/25 00:08:06;;;;;;;26.70;24.25;;;19.20;99.90;;;;;;6238799;23;20051;-79
2023/08/25 00:10:32;;;;;;;25.77;23.50;;;19.10;99.90;;;;;;6238977;23;20022;-79
2023/08/25 00:12:58;;;;;;;23.17;21.05;;;19.20;99.90;;;;;;6238878;23;20023;-79
2023/08/25 00:15:24;;;;;;;25.90;23.27;;;19.20;99.90;;;;;;6240897;23;20008;-79
2023/08/25 00:17:50;;;;;;;24.77;22.38;;;19.10;99.90;;;;;;6240902;23;20139;-79
2023/08/25 00:20:16;;;;;;;24.10;21.63;;;19.10;99.90;;;;;;6240494;22;20015;-79
2023/08/25 00:22:42;;;;;;;21.77;19.60;;;19.10;99.90;;;;;;6238951;23;20061;-79
2023/08/25 00:25:08;;;;;;;24.63;22.13;;;19.10;99.90;;;;;;6240625;23;20058;-79
2023/08/25 00:27:34;;;;;;;25.88;23.65;;;19.00;99.90;;;;;;6240678;22;20050;-79
2023/08/25 00:29:59;;;;;;;25.30;22.77;;;19.00;99.90;;;;;;6240947;22;20008;-79
2023/08/25 00:32:25;;;;;;;25.33;22.58;;;19.10;99.90;;;;;;6240747;22;20012;-79
2023/08/25 00:34:51;;;;;;;27.35;24.30;;;19.10;99.90;;;;;;6238292;23;20012;-79
2023/08/25 00:37:16;;;;;;;26.40;23.65;;;19.20;99.90;;;;;;6238894;23;20040;-80
2023/08/25 00:39:42;;;;;;;31.70;28.48;;;19.20;99.90;;;;;;6213631;23;20023;-79
2023/08/25 00:42:08;;;;;;;31.23;28.02;;;19.20;99.90;;;;;;6238746;23;20142;-80
2023/08/25 00:44:35;;;;;;;28.08;25.40;;;19.30;99.90;;;;;;6240377;23;20020;-80
2023/08/25 00:47:00;;;;;;;28.73;25.92;;;19.30;99.90;;;;;;6238609;23;20038;-79
2023/08/25 00:49:27;;;;;;;31.27;28.17;;;19.40;99.90;;;;;;6240057;23;20040;-79
2023/08/25 00:51:53;;;;;;;30.70;26.95;;;19.40;99.90;;;;;;6240613;22;20340;-78
2023/08/25 00:54:21;;;;;;;29.50;26.40;;;19.40;99.90;;;;;;6240531;23;20015;-79
2023/08/25 00:56:49;;;;;;;27.52;24.67;;;19.40;99.90;;;;;;6213471;23;20039;-79
2023/08/25 00:59:16;;;;;;;28.48;25.55;;;19.40;99.90;;;;;;6240239;23;20090;-79
2023/08/25 01:01:41;;;;;;;29.30;26.27;;;19.40;99.90;;;;;;6242791;22;20012;-79
2023/08/25 01:04:07;;;;;;;29.25;26.63;;;19.40;99.90;;;;;;6241979;23;20057;-79
2023/08/25 01:06:33;;;;;;;33.08;29.70;;;19.50;99.90;;;;;;6242726;22;20239;-79
2023/08/25 01:08:59;;;;;;;29.83;26.40;;;19.50;99.90;;;;;;6240682;23;20053;-80
2023/08/25 01:11:35;;;;;;;23.98;19.88;;;19.50;99.90;;;;;;6240603;23;20083;-80
2023/08/25 01:14:23;;;;;;;30.67;27.67;;;19.50;99.90;;;;;;6240731;23;20012;-80
2023/08/25 01:16:58;;;;;;;29.63;26.55;;;19.60;99.90;;;;;;6242289;22;20023;-79
2023/08/25 01:19:50;;;;;;;27.17;24.48;;;19.60;99.90;;;;;;6240026;23;20496;-79
2023/08/25 01:22:25;;;;;;;25.30;22.73;;;19.60;99.90;;;;;;6242583;22;20027;-79
2023/08/25 01:24:54;;;;;;;29.50;26.45;;;19.60;99.90;;;;;;6240453;23;20016;-79
2023/08/25 01:27:20;;;;;;;31.17;27.63;;;19.60;99.90;;;;;;6240507;23;20087;-79
2023/08/25 01:29:46;;;;;;;29.80;26.77;;;19.50;99.90;;;;;;6242398;23;20054;-79
2023/08/25 01:32:11;;;;;;;29.92;26.92;;;19.50;99.90;;;;;;6240427;23;20012;-79
2023/08/25 01:34:38;;;;;;;28.63;25.52;;;19.40;99.90;;;;;;6239473;23;20019;-79
2023/08/25 01:37:28;;;;;;;31.17;27.90;;;19.30;99.90;;;;;;6214878;23;20016;-79
2023/08/25 01:40:04;;;;;;;32.42;29.05;;;19.30;99.90;;;;;;6242425;22;20016;-79
2023/08/25 01:42:33;;;;;;;31.98;27.85;;;19.20;99.90;;;;;;6241797;22;20015;-79
2023/08/25 01:45:03;;;;;;;33.30;28.75;;;19.20;99.90;;;;;;6240148;23;20023;-79
2023/08/25 01:47:31;;;;;;;33.10;29.73;;;19.20;99.90;;;;;;6239656;23;20012;-79
2023/08/25 01:49:57;;;;;;;30.95;27.67;;;19.10;99.90;;;;;;6214938;23;20005;-79
2023/08/25 01:52:24;;;;;;;33.80;29.67;;;19.10;99.90;;;;;;6242310;22;20008;-79
2023/08/25 01:54:50;;;;;;;28.48;25.67;;;19.00;99.90;;;;;;6241678;22;20018;-79
2023/08/25 01:57:16;;;;;;;34.60;30.92;;;19.00;99.90;;;;;;6240239;23;20016;-80
2023/08/25 01:59:42;;;;;;;30.90;27.65;;;19.00;99.90;;;;;;6239922;23;20027;-79
2023/08/25 02:02:07;;;;;;;35.55;31.88;;;18.90;99.90;;;;;;6241446;23;20008;-79
2023/08/25 02:04:33;;;;;;;34.83;31.17;;;18.90;99.90;;;;;;6240304;23;20040;-79
2023/08/25 02:06:59;;;;;;;33.42;29.83;;;18.90;99.90;;;;;;6241895;23;20090;-79
2023/08/25 02:09:25;;;;;;;32.03;28.50;;;18.90;99.90;;;;;;6240146;23;20263;-80
2023/08/25 02:11:50;;;;;;;34.03;28.83;;;18.90;99.90;;;;;;6240186;23;20095;-79
2023/08/25 02:14:16;;;;;;;38.13;33.85;;;18.90;99.90;;;;;;6241960;23;20016;-80
2023/08/25 02:16:42;;;;;;;34.20;30.77;;;18.90;99.90;;;;;;6241407;23;20016;-79
2023/08/25 02:19:08;;;;;;;35.28;31.83;;;18.90;99.90;;;;;;6241955;23;20008;-79
2023/08/25 02:21:34;;;;;;;31.65;28.45;;;18.90;99.90;;;;;;6239907;23;20004;-79
2023/08/25 02:23:59;;;;;;;36.25;31.08;;;18.90;99.90;;;;;;6241482;23;20093;-79
2023/08/25 02:26:25;;;;;;;35.53;31.77;;;18.90;99.90;;;;;;6241252;23;20058;-80
2023/08/25 02:28:51;;;;;;;42.38;34.97;;;18.90;99.90;;;;;;6239761;23;20023;-80
2023/08/25 02:31:16;;;;;;;39.63;34.85;;;18.80;99.90;;;;;;6241196;23;20446;-79
2023/08/25 02:33:42;;;;;;;37.13;33.13;;;18.80;99.90;;;;;;6239818;23;20091;-80
2023/08/25 02:36:08;;;;;;;37.35;32.80;;;18.70;99.90;;;;;;6240059;23;20016;-79
2023/08/25 02:38:33;;;;;;;39.70;32.95;;;18.70;99.90;;;;;;6214733;23;20133;-79
2023/08/25 02:40:59;;;;;;;42.17;35.92;;;18.70;99.90;;;;;;6241237;23;20004;-80
2023/08/25 02:43:24;;;;;;;45.75;37.40;;;18.70;99.90;;;;;;6241247;22;20039;-79
2023/08/25 02:45:50;;;;;;;36.08;30.10;;;18.70;99.90;;;;;;6239019;23;20018;-79
2023/08/25 02:48:16;;;;;;;46.25;41.20;;;18.70;99.90;;;;;;6239741;23;20480;-79
2023/08/25 02:50:42;;;;;;;44.03;38.38;;;18.70;99.90;;;;;;6239442;23;20012;-79
2023/08/25 02:53:07;;;;;;;38.15;33.78;;;18.70;99.90;;;;;;6241460;23;20021;-79
2023/08/25 02:55:33;;;;;;;43.85;36.55;;;18.70;99.90;;;;;;6241462;23;20019;-79
2023/08/25 02:57:59;;;;;;;37.90;33.80;;;18.70;99.90;;;;;;6239427;23;20493;-80
2023/08/25 03:00:25;;;;;;;39.00;33.15;;;18.70;99.90;;;;;;6239027;23;20022;-79
2023/08/25 03:02:51;;;;;;;41.38;33.28;;;18.70;99.90;;;;;;6239765;23;20374;-79
2023/08/25 03:05:17;;;;;;;38.90;34.40;;;18.60;99.90;;;;;;6241392;22;20015;-80
2023/08/25 03:07:43;;;;;;;41.75;35.00;;;18.60;99.90;;;;;;6239766;23;20477;-79
2023/08/25 03:10:09;;;;;;;43.83;34.80;;;18.50;99.90;;;;;;6239812;23;20012;-80
2023/08/25 03:12:35;;;;;;;38.33;34.30;;;18.50;99.90;;;;;;6239444;23;20012;-79
2023/08/25 03:15:01;;;;;;;46.60;38.30;;;18.50;99.90;;;;;;6238785;23;20008;-79
2023/08/25 03:17:27;;;;;;;44.40;36.08;;;18.50;99.90;;;;;;6241075;22;20012;-79
2023/08/25 03:19:53;;;;;;;42.80;37.55;;;18.50;99.90;;;;;;6239388;23;20035;-79
2023/08/25 03:22:19;;;;;;;40.63;36.25;;;18.50;99.90;;;;;;6240949;23;20081;-79
2023/08/25 03:24:45;;;;;;;46.55;36.53;;;18.50;99.90;;;;;;6241175;22;20020;-79
2023/08/25 03:27:11;;;;;;;53.28;39.08;;;18.50;99.90;;;;;;6241134;22;20022;-79
2023/08/25 03:29:36;;;;;;;52.47;38.42;;;18.50;99.90;;;;;;6240604;22;20335;-79
2023/08/25 03:32:02;;;;;;;42.88;36.10;;;18.40;99.90;;;;;;6239367;23;20182;-79
2023/08/25 03:34:29;;;;;;;46.78;36.38;;;18.40;99.90;;;;;;6239494;23;20111;-79
2023/08/25 03:36:55;;;;;;;46.70;40.85;;;18.40;99.90;;;;;;6239268;23;20066;-79
2023/08/25 03:39:20;;;;;;;45.78;39.20;;;18.40;99.90;;;;;;6239341;23;20008;-80
2023/08/25 03:41:46;;;;;;;52.60;41.67;;;18.50;99.90;;;;;;6240645;23;20016;-80
2023/08/25 03:44:12;;;;;;;47.40;37.30;;;18.50;99.90;;;;;;6240183;23;20140;-79
2023/08/25 03:46:37;;;;;;;46.25;38.08;;;18.40;99.90;;;;;;6240765;22;20075;-79
2023/08/25 03:49:03;;;;;;;52.63;42.58;;;18.50;99.90;;;;;;6239128;23;20019;-79
2023/08/25 03:51:29;;;;;;;51.65;38.72;;;18.50;99.90;;;;;;6241047;22;20407;-79
2023/08/25 03:53:55;;;;;;;59.92;44.90;;;18.50;99.90;;;;;;6240937;22;20016;-79
2023/08/25 03:56:21;;;;;;;47.75;38.65;;;18.60;99.90;;;;;;6240674;23;20019;-80
2023/08/25 03:58:47;;;;;;;55.03;40.53;;;18.60;99.90;;;;;;6240132;23;20344;-79
2023/08/25 04:01:13;;;;;;;53.42;41.83;;;18.70;99.90;;;;;;6242521;23;20015;-80
2023/08/25 04:03:39;;;;;;;52.45;41.00;;;18.70;99.90;;;;;;6239305;23;20012;-79
2023/08/25 04:06:06;;;;;;;57.30;45.40;;;18.80;99.90;;;;;;6239237;23;20058;-79
2023/08/25 04:08:31;;;;;;;51.28;37.72;;;18.80;99.90;;;;;;6240968;22;20012;-79
2023/08/25 04:10:57;;;;;;;56.22;40.28;;;18.80;99.90;;;;;;6241043;22;20008;-79
2023/08/25 04:13:23;;;;;;;55.75;40.58;;;18.80;99.90;;;;;;6239814;23;20339;-79
2023/08/25 04:15:58;;;;;;;54.80;42.60;;;18.80;99.90;;;;;;6238899;23;20020;-79
2023/08/25 04:18:25;;;;;;;57.20;42.20;;;18.80;99.90;;;;;;6238966;23;20020;-79
2023/08/25 04:20:51;;;;;;;61.65;42.60;;;18.80;99.90;;;;;;6239111;23;20463;-79
2023/08/25 04:23:17;;;;;;;58.05;44.20;;;18.90;99.90;;;;;;6239378;23;20297;-79
2023/08/25 04:25:42;;;;;;;54.13;41.28;;;18.90;99.90;;;;;;6238561;23;20016;-79
2023/08/25 04:28:08;;;;;;;54.35;39.78;;;18.90;99.90;;;;;;6237952;23;20128;-79
2023/08/25 04:30:34;;;;;;;52.22;40.40;;;18.90;99.90;;;;;;6239271;23;20137;-79
2023/08/25 04:33:00;;;;;;;56.92;41.65;;;18.90;99.90;;;;;;6240418;22;20020;-79
2023/08/25 04:35:25;;;;;;;56.10;40.67;;;18.90;99.90;;;;;;6238790;23;20316;-79
2023/08/25 04:37:51;;;;;;;58.92;43.58;;;18.90;99.90;;;;;;6238878;23;20031;-80
2023/08/25 04:40:18;;;;;;;59.90;42.90;;;18.90;99.90;;;;;;6213562;23;20012;-79
2023/08/25 04:42:43;;;;;;;60.17;44.70;;;18.90;99.90;;;;;;6238084;23;20236;-79
2023/08/25 04:45:10;;;;;;;64.50;44.08;;;19.00;99.90;;;;;;6240495;23;20493;-80
2023/08/25 04:47:37;;;;;;;53.47;40.40;;;18.90;99.90;;;;;;6238740;23;20059;-79
2023/08/25 04:50:03;;;;;;;57.35;41.03;;;19.00;99.90;;;;;;6240779;22;20008;-80
2023/08/25 04:52:34;;;;;;;64.22;45.92;;;19.00;99.90;;;;;;6238902;23;20044;-80
2023/08/25 04:55:00;;;;;;;50.03;40.08;;;19.10;99.90;;;;;;6240374;22;20459;-79
2023/08/25 04:57:26;;;;;;;59.28;42.65;;;19.10;99.90;;;;;;6238042;23;20308;-80
2023/08/25 04:59:52;;;;;;;58.25;40.83;;;19.10;99.90;;;;;;6240213;23;20099;-80
2023/08/25 05:02:17;;;;;;;65.88;42.88;;;19.20;99.90;;;;;;6240356;23;20019;-80
2023/08/25 05:04:43;;;;;;;66.60;44.88;;;19.10;99.90;;;;;;6240228;23;20009;-80
2023/08/25 05:07:09;;;;;;;53.75;37.05;;;19.20;99.90;;;;;;6240638;23;20017;-80
2023/08/25 05:09:35;;;;;;;56.25;39.58;;;19.20;99.90;;;;;;6240647;23;20315;-80
2023/08/25 05:12:00;;;;;;;51.63;37.70;;;19.20;99.90;;;;;;6238207;23;20146;-80
2023/08/25 05:14:26;;;;;;;50.92;37.70;;;19.20;99.90;;;;;;6238698;23;20012;-80
2023/08/25 05:16:51;;;;;;;56.83;39.72;;;19.30;99.90;;;;;;6238939;23;20031;-80
2023/08/25 05:19:17;;;;;;;53.35;38.53;;;19.30;99.90;;;;;;6238747;23;20347;-80
2023/08/25 05:21:43;;;;;;;63.40;45.40;;;19.30;99.90;;;;;;6240715;23;20019;-80
2023/08/25 05:24:35;;;;;;;56.33;41.30;;;19.30;99.90;;;;;;6240422;23;20044;-80
2023/08/25 05:27:00;;;;;;;51.95;39.10;;;19.30;99.90;;;;;;6231658;23;20012;-80
2023/08/25 05:29:27;;;;;;;64.72;45.05;;;19.40;99.90;;;;;;6238713;23;20043;-80
2023/08/25 05:31:54;;;;;;;51.78;32.08;;;19.40;99.90;;;;;;6241114;23;20308;-80
2023/08/25 05:34:20;;;;;;;57.78;39.88;;;19.40;99.90;;;;;;6240645;22;20249;-79
2023/08/25 05:36:45;;;;;;;49.53;38.28;;;19.40;99.90;;;;;;6240604;22;20148;-80
2023/08/25 05:39:12;;;;;;;66.32;44.60;;;19.50;99.90;;;;;;6238188;23;20374;-80
2023/08/25 05:41:38;;;;;;;54.83;41.38;;;19.50;99.90;;;;;;6238250;23;20020;-80
2023/08/25 05:44:04;;;;;;;57.83;41.30;;;19.50;99.90;;;;;;6238584;23;20462;-80
2023/08/25 05:46:30;;;;;;;66.88;46.28;;;19.50;99.90;;;;;;6240499;23;20019;-80
2023/08/25 05:48:59;;;;;;;66.65;46.42;;;19.50;99.90;;;;;;6240593;23;20012;-80
2023/08/25 05:51:25;;;;;;;68.60;47.72;;;19.60;99.90;;;;;;6240465;23;20098;-80
2023/08/25 05:53:51;;;;;;;64.78;45.45;;;19.60;99.90;;;;;;6239829;23;20012;-79
2023/08/25 05:56:17;;;;;;;67.35;45.30;;;19.60;99.90;;;;;;6242215;23;20024;-80
2023/08/25 05:58:43;;;;;;;54.13;39.13;;;19.60;99.90;;;;;;6242307;23;20095;-80
2023/08/25 06:01:11;;;;;;;67.88;46.85;;;19.60;99.90;;;;;;6242215;22;20023;-80
2023/08/25 06:03:37;;;;;;;67.60;45.85;;;19.70;99.90;;;;;;6242394;22;20016;-80
2023/08/25 06:06:03;;;;;;;59.08;43.58;;;19.70;99.90;;;;;;6240294;23;20008;-80
2023/08/25 06:08:29;;;;;;;70.60;47.90;;;19.70;99.90;;;;;;6241745;22;20015;-81
2023/08/25 06:10:55;;;;;;;62.33;42.63;;;19.70;99.90;;;;;;6242092;22;20019;-80
2023/08/25 06:13:21;;;;;;;66.25;47.38;;;19.80;99.90;;;;;;6242483;23;20012;-80
2023/08/25 06:15:48;;;;;;;56.33;40.20;;;19.80;99.90;;;;;;6242455;22;20103;-80
2023/08/25 06:18:15;;;;;;;68.97;45.13;;;19.90;99.90;;;;;;6242160;22;20031;-81
2023/08/25 06:20:41;;;;;;;67.63;46.85;;;19.90;99.90;;;;;;6240372;23;20016;-80
2023/08/25 06:23:07;;;;;;;59.95;43.03;;;20.00;99.90;;;;;;6214437;23;20020;-80
2023/08/25 06:25:33;;;;;;;59.50;44.78;;;20.00;99.90;;;;;;6241713;22;20016;-80
2023/08/25 06:27:59;;;;;;;56.20;40.80;;;20.10;99.90;;;;;;6241972;22;20499;-81
2023/08/25 06:30:26;;;;;;;64.35;47.55;;;20.20;99.90;;;;;;6241988;22;20278;-80
2023/08/25 06:32:52;;;;;;;65.68;45.38;;;20.40;99.90;;;;;;6240330;23;20422;-78
2023/08/25 06:35:18;;;;;;;57.92;43.55;;;20.60;99.90;;;;;;6241942;22;20004;-79
2023/08/25 06:37:44;;;;;;;64.97;46.67;;;20.80;99.90;;;;;;6239536;23;20443;-79
2023/08/25 06:40:11;;;;;;;61.80;45.13;;;20.90;99.90;;;;;;6241637;22;20113;-79
2023/08/25 06:42:37;;;;;;;63.72;47.72;;;20.90;99.90;;;;;;6239672;23;20051;-79
2023/08/25 06:45:09;;;;;;;72.47;47.03;;;21.20;99.90;;;;;;6239847;23;20020;-80
2023/08/25 06:47:35;;;;;;;62.60;47.38;;;21.50;99.90;;;;;;6241749;22;20024;-79
2023/08/25 06:50:02;;;;;;;51.13;40.30;;;21.70;99.90;;;;;;6239865;23;20004;-79
2023/08/25 06:52:28;;;;;;;52.13;41.95;;;21.80;99.90;;;;;;6241222;22;20012;-79
2023/08/25 06:54:54;;;;;;;57.35;45.83;;;21.80;99.90;;;;;;6239882;23;20016;-79
2023/08/25 06:57:19;;;;;;;58.10;43.75;;;21.70;99.90;;;;;;6241500;22;20235;-79
2023/08/25 06:59:45;;;;;;;50.13;41.55;;;21.70;99.90;;;;;;6241533;22;20016;-79
2023/08/25 07:02:11;;;;;;;57.60;42.38;;;21.60;99.90;;;;;;6239795;23;20477;-79
2023/08/25 07:04:37;;;;;;;58.47;42.00;;;21.50;99.90;;;;;;6239963;23;20017;-79
2023/08/25 07:07:02;;;;;;;63.92;46.47;;;21.50;99.90;;;;;;6239178;23;20463;-79
2023/08/25 07:09:28;;;;;;;61.70;45.47;;;21.50;99.90;;;;;;6239505;23;20020;-80
2023/08/25 07:11:54;;;;;;;59.90;45.05;;;21.40;99.90;;;;;;6239535;23;20094;-79
2023/08/25 07:14:20;;;;;;;71.97;46.50;;;21.40;99.90;;;;;;6239766;23;20012;-79
2023/08/25 07:16:46;;;;;;;64.05;47.47;;;21.40;99.90;;;;;;6239787;23;20031;-79
2023/08/25 07:19:14;;;;;;;64.60;44.70;;;21.50;99.90;;;;;;6241788;22;20012;-79
2023/08/25 07:21:40;;;;;;;53.17;43.65;;;21.60;99.90;;;;;;6239443;23;20012;-79
2023/08/25 07:24:05;;;;;;;60.60;46.10;;;21.60;99.90;;;;;;6241479;23;20488;-79
2023/08/25 07:26:31;;;;;;;60.75;46.88;;;21.60;99.90;;;;;;6239501;23;20343;-79
2023/08/25 07:28:57;;;;;;;60.38;46.47;;;21.60;99.90;;;;;;6239461;23;20039;-79
2023/08/25 07:31:22;;;;;;;62.38;47.78;;;21.70;99.90;;;;;;6241454;23;20092;-79
2023/08/25 07:33:48;;;;;;;67.97;51.15;;;21.80;99.90;;;;;;6241632;22;20004;-79
2023/08/25 07:36:14;;;;;;;56.70;46.42;;;21.80;99.90;;;;;;6239201;23;20095;-79
2023/08/25 07:38:39;;;;;;;60.85;46.40;;;21.90;99.90;;;;;;6241870;22;20104;-79
2023/08/25 07:41:05;;;;;;;61.58;46.22;;;22.00;99.90;;;;;;6239142;23;20012;-80
2023/08/25 07:43:31;;;;;;;61.95;48.58;;;22.10;99.90;;;;;;6239721;23;20048;-79
2023/08/25 07:45:56;;;;;;;62.85;47.17;;;22.10;99.90;;;;;;6241149;23;20091;-79
2023/08/25 07:48:23;;;;;;;63.03;49.65;;;22.10;99.90;;;;;;6241163;22;20022;-79
2023/08/25 07:50:49;;;;;;;62.40;50.40;;;22.00;99.90;;;;;;6240575;22;20039;-79
2023/08/25 07:53:15;;;;;;;67.40;48.17;;;22.00;99.90;;;;;;6239352;23;20078;-79
2023/08/25 07:55:41;;;;;;;64.85;49.97;;;21.90;99.90;;;;;;6239403;23;20048;-79
2023/08/25 07:58:08;;;;;;;51.72;40.75;;;21.80;99.90;;;;;;6213848;23;20320;-79
2023/08/25 08:00:34;;;;;;;73.70;52.15;;;21.80;99.90;;;;;;6239115;23;20018;-79
2023/08/25 08:03:00;;;;;;;66.05;47.58;;;21.80;99.90;;;;;;6239427;23;20090;-79
2023/08/25 08:05:26;;;;;;;67.05;49.35;;;21.80;99.90;;;;;;6238775;23;20486;-79
2023/08/25 08:07:52;;;;;;;68.85;51.17;;;21.80;99.90;;;;;;6240814;22;20091;-79
2023/08/25 08:10:17;;;;;;;69.43;46.13;;;21.90;99.90;;;;;;6240877;23;20057;-79
2023/08/25 08:12:43;;;;;;;67.05;48.00;;;21.90;99.90;;;;;;6239261;23;20501;-79
2023/08/25 08:15:10;;;;;;;66.13;48.17;;;21.80;99.90;;;;;;6239416;23;20378;-79
2023/08/25 08:17:36;;;;;;;68.55;48.03;;;21.90;99.90;;;;;;6239044;23;20054;-79
2023/08/25 08:20:07;;;;;;;73.68;49.13;;;21.90;99.90;;;;;;6238383;23;20016;-79
2023/08/25 08:22:33;;;;;;;72.72;50.80;;;22.30;99.90;;;;;;6239024;23;20019;-80
2023/08/25 08:24:58;;;;;;;64.15;46.95;;;22.90;99.90;;;;;;6240572;22;20008;-79
2023/08/25 08:27:25;;;;;;;68.55;48.58;;;23.30;99.90;;;;;;6238730;23;20008;-80
2023/08/25 08:29:51;;;;;;;69.03;49.45;;;23.30;99.90;;;;;;6238813;23;20453;-79
2023/08/25 08:32:17;;;;;;;54.83;40.58;;;23.30;99.90;;;;;;6238901;23;20085;-79
2023/08/25 08:34:43;;;;;;;65.63;45.25;;;23.30;99.90;;;;;;6238249;23;20016;-79
2023/08/25 08:37:09;;;;;;;64.78;42.85;;;23.20;99.90;;;;;;6241290;23;20419;-79
2023/08/25 08:39:37;;;;;;;57.42;44.03;;;23.20;99.90;;;;;;6238788;23;20027;-80
2023/08/25 08:42:03;;;;;;;59.35;47.08;;;23.40;99.90;;;;;;6240791;22;20065;-79
2023/08/25 08:44:35;;;;;;;56.72;44.58;;;23.40;99.90;;;;;;6238764;23;20024;-79
2023/08/25 08:47:03;;;;;;;64.10;47.83;;;23.50;99.90;;;;;;6240656;22;20189;-79
2023/08/25 08:49:30;;;;;;;60.45;46.45;;;23.30;99.90;;;;;;6238339;23;20717;-79
2023/08/25 08:51:58;;;;;;;56.72;45.67;;;23.40;99.90;;;;;;6238828;23;20008;-79
2023/08/25 08:54:25;;;;;;;55.85;42.75;;;23.40;99.90;;;;;;6238744;23;20078;-79
2023/08/25 08:56:51;;;;;;;52.92;42.33;;;23.40;99.90;;;;;;6239260;23;20019;-79
2023/08/25 08:59:17;;;;;;;54.42;43.35;;;23.30;99.90;;;;;;6239066;23;20008;-78
2023/08/25 09:01:44;;;;;;;63.42;45.05;;;23.20;99.90;;;;;;6238861;23;20155;-79
2023/08/25 09:04:11;;;;;;;57.28;43.97;;;23.10;99.90;;;;;;6238235;23;20095;-78
2023/08/25 09:06:39;;;;;;;55.72;41.05;;;22.90;99.90;;;;;;6238895;23;20013;-79
2023/08/25 09:09:06;;;;;;;53.45;42.17;;;22.90;99.90;;;;;;6238976;23;20013;-79
2023/08/25 09:11:32;;;;;;;57.17;41.90;;;22.70;99.90;;;;;;6238594;23;20083;-78
2023/08/25 09:14:03;;;;;;;54.75;44.67;;;22.60;99.90;;;;;;6238649;23;20008;-79
2023/08/25 09:16:33;;;;;;;57.13;42.13;;;22.50;99.90;;;;;;6239806;22;20469;-79
2023/08/25 09:19:02;;;;;;;58.85;42.25;;;22.40;99.90;;;;;;6240657;22;20012;-79
2023/08/25 09:21:28;;;;;;;54.50;41.35;;;22.30;99.90;;;;;;6243320;22;20043;-80
2023/08/25 09:23:59;;;;;;;54.50;41.30;;;22.20;99.90;;;;;;6241000;23;20031;-79
2023/08/25 09:26:27;;;;;;;58.40;41.22;;;22.10;99.90;;;;;;6240553;23;20016;-79
2023/08/25 09:28:54;;;;;;;59.95;42.88;;;22.10;99.90;;;;;;6241046;23;20087;-79
2023/08/25 09:31:25;;;;;;;57.63;44.08;;;22.10;99.90;;;;;;6241933;22;20014;-79
2023/08/25 09:33:57;;;;;;;60.80;45.75;;;22.10;99.90;;;;;;6240756;23;20479;-79
2023/08/25 09:36:23;;;;;;;60.63;43.07;;;22.10;99.90;;;;;;6242583;22;20062;-79
2023/08/25 09:38:49;;;;;;;58.35;45.00;;;22.10;99.90;;;;;;6240438;23;20044;-79
2023/08/25 09:41:23;;;;;;;64.95;47.75;;;22.20;99.90;;;;;;6242111;22;20087;-79
2023/08/25 09:43:50;;;;;;;64.40;45.17;;;22.10;99.90;;;;;;6240499;23;20559;-79
2023/08/25 09:46:15;;;;;;;62.80;45.53;;;22.10;99.90;;;;;;6239738;23;20016;-80
2023/08/25 09:48:44;;;;;;;60.33;46.60;;;22.10;99.90;;;;;;6240350;23;20313;-79
2023/08/25 09:51:10;;;;;;;61.40;43.22;;;22.20;99.90;;;;;;6242127;22;20135;-79
2023/08/25 09:53:38;;;;;;;64.03;46.67;;;22.30;99.90;;;;;;6240383;23;20248;-79
2023/08/25 09:56:07;;;;;;;59.10;44.80;;;22.40;99.90;;;;;;6240188;23;20025;-79
2023/08/25 09:58:37;;;;;;;63.33;48.28;;;22.50;99.90;;;;;;6240210;23;20054;-79
2023/08/25 10:01:04;;;;;;;62.03;48.13;;;22.60;99.90;;;;;;6241739;22;20065;-79
2023/08/25 10:03:30;;;;;;;59.03;46.38;;;22.60;99.90;;;;;;6240200;23;20055;-80
2023/08/25 10:05:58;;;;;;;58.15;41.92;;;22.80;99.90;;;;;;6240185;23;20016;-79
2023/08/25 10:08:24;;;;;;;56.65;45.22;;;22.80;99.90;;;;;;6240249;23;20439;-79
2023/08/25 10:10:50;;;;;;;62.65;44.70;;;22.90;99.90;;;;;;6240138;23;20055;-79
2023/08/25 10:13:18;;;;;;;56.70;43.67;;;22.90;99.90;;;;;;6240205;23;20447;-80
2023/08/25 10:15:46;;;;;;;57.22;44.38;;;22.80;99.90;;;;;;6241457;22;20066;-80
2023/08/25 10:18:12;;;;;;;66.90;44.38;;;22.80;99.90;;;;;;6240144;23;20016;-79
2023/08/25 10:20:39;;;;;;;57.15;44.10;;;22.70;99.90;;;;;;6240166;23;20018;-79
2023/08/25 10:23:07;;;;;;;61.38;44.65;;;22.60;99.90;;;;;;6240409;23;20024;-80
2023/08/25 10:25:32;;;;;;;64.47;49.38;;;22.70;99.90;;;;;;6240252;23;20117;-79
2023/08/25 10:28:00;;;;;;;64.03;49.00;;;22.60;99.90;;;;;;6239857;23;20015;-79
2023/08/25 10:30:27;;;;;;;57.50;43.92;;;22.50;99.90;;;;;;6239405;23;20012;-80
2023/08/25 10:33:09;;;;;;;65.30;46.63;;;22.40;99.90;;;;;;6240069;23;20005;-80
2023/08/25 10:35:45;;;;;;;60.40;47.65;;;22.30;99.90;;;;;;6241832;22;20043;-79
2023/08/25 10:38:36;;;;;;;58.47;45.70;;;22.30;99.90;;;;;;6240473;23;20159;-79
2023/08/25 10:41:14;;;;;;;58.10;48.10;;;22.30;99.90;;;;;;6241129;22;20023;-79
2023/08/25 10:43:41;;;;;;;65.65;47.80;;;22.30;99.90;;;;;;6239412;23;20436;-79
2023/08/25 10:46:08;;;;;;;61.83;46.33;;;22.20;99.90;;;;;;6241657;22;20016;-79
2023/08/25 10:48:34;;;;;;;61.72;45.95;;;22.10;99.90;;;;;;6214485;23;20012;-79
2023/08/25 10:51:16;;;;;;;65.25;48.05;;;22.10;99.90;;;;;;6241925;22;20075;-79
2023/08/25 10:53:49;;;;;;;57.20;45.47;;;22.30;99.90;;;;;;6240126;23;20087;-79
2023/08/25 10:56:18;;;;;;;64.30;46.92;;;22.30;99.90;;;;;;6239760;23;20020;-79
2023/08/25 10:59:05;;;;;;;59.28;46.00;;;22.40;99.90;;;;;;6241044;23;20016;-79
2023/08/25 11:01:37;;;;;;;64.47;48.58;;;22.50;99.90;;;;;;6239410;23;20395;-79
2023/08/25 11:04:08;;;;;;;57.05;45.38;;;22.50;99.90;;;;;;6240068;23;20436;-80
2023/08/25 11:06:44;;;;;;;61.38;45.58;;;22.50;99.90;;;;;;6241410;23;20052;-80
2023/08/25 11:09:46;;;;;;;59.25;44.45;;;22.60;99.90;;;;;;6241426;23;20012;-79
2023/08/25 11:12:12;;;;;;;54.75;42.83;;;22.60;99.90;;;;;;6241768;22;20058;-79
2023/08/25 11:14:42;;;;;;;57.47;43.60;;;22.60;99.90;;;;;;6239088;23;20210;-79
2023/08/25 11:17:08;;;;;;;51.08;40.75;;;22.70;99.90;;;;;;6239726;23;20100;-79
2023/08/25 11:19:39;;;;;;;55.20;42.22;;;22.70;99.90;;;;;;6241400;22;20011;-79
2023/08/25 11:22:11;;;;;;;46.70;40.45;;;22.60;99.90;;;;;;6239697;23;20020;-79
2023/08/25 11:24:38;;;;;;;60.67;45.80;;;22.50;99.90;;;;;;6239636;23;20012;-79
2023/08/25 11:27:11;;;;;;;78.40;54.25;;;22.40;99.90;;;;;;6213722;23;20065;-78
2023/08/25 11:29:44;;;;;;;70.10;50.08;;;22.20;99.90;;;;;;6239603;23;20005;-79
2023/08/25 11:32:11;;;;;;;85.28;51.67;;;21.90;99.90;;;;;;6239270;23;20718;-78
2023/08/25 11:34:37;;;;;;;94.22;51.58;;;21.60;99.90;;;;;;6239486;23;20014;-78
2023/08/25 11:37:03;;;;;;;83.88;51.45;;;21.40;99.90;;;;;;6214012;23;20012;-78
2023/08/25 11:39:29;;;;;;;95.88;54.75;;;21.40;99.90;;;;;;6239403;23;20069;-79
2023/08/25 11:41:56;;;;;;;84.85;54.00;;;21.20;99.90;;;;;;6239899;23;20027;-79
2023/08/25 11:44:25;;;;;;;98.63;55.63;;;21.10;99.90;;;;;;6241050;22;20023;-78
2023/08/25 11:46:54;;;;;;;108.78;57.85;;;20.90;99.90;;;;;;6239489;23;20012;-78
2023/08/25 11:49:20;;;;;;;119.43;62.38;;;20.90;99.90;;;;;;6241051;22;20008;-79
2023/08/25 11:51:52;;;;;;;104.05;57.50;;;21.00;99.90;;;;;;6241010;22;20327;-78
2023/08/25 11:54:18;;;;;;;91.43;54.65;;;21.00;99.90;;;;;;6239379;23;20014;-79
2023/08/25 11:56:53;;;;;;;88.97;53.30;;;21.00;99.90;;;;;;6240401;23;20079;-79
2023/08/25 11:59:19;;;;;;;86.07;52.90;;;20.90;99.90;;;;;;6213815;23;20016;-79
2023/08/25 12:01:51;;;;;;;87.05;55.97;;;20.80;99.90;;;;;;6240980;22;20012;-79
2023/08/25 12:04:24;;;;;;;88.95;53.42;;;20.70;99.90;;;;;;6239003;23;20398;-79
2023/08/25 12:06:55;;;;;;;97.18;56.83;;;20.60;99.90;;;;;;6241073;22;20047;-79
2023/08/25 12:09:23;;;;;;;81.00;51.03;;;20.60;99.90;;;;;;6239194;23;20012;-79
2023/08/25 12:11:49;;;;;;;89.32;53.65;;;20.50;99.90;;;;;;6238437;23;20075;-78
2023/08/25 12:14:29;;;;;;;81.88;54.83;;;20.60;99.90;;;;;;6239014;23;20016;-79
2023/08/25 12:16:56;;;;;;;80.40;54.05;;;20.60;99.90;;;;;;6239332;23;20020;-80
2023/08/25 12:19:26;;;;;;;80.32;51.53;;;20.60;99.90;;;;;;6241065;22;20074;-79
2023/08/25 12:21:56;;;;;;;80.57;51.10;;;20.50;99.90;;;;;;6239044;23;20020;-79
2023/08/25 12:24:23;;;;;;;93.00;57.85;;;20.50;99.90;;;;;;6239149;23;20067;-78
2023/08/25 12:26:49;;;;;;;106.85;58.55;;;20.50;99.90;;;;;;6240362;22;20062;-79